createdAt,value
2018-09-19T00:00:07.936Z,61.38
2018-09-19T00:02:36.136Z,61.76
2018-09-19T00:05:04.303Z,61.18
2018-09-19T00:07:32.459Z,61.41
2018-09-19T00:10:00.706Z,61.38
2018-09-19T00:12:29.095Z,61.09
2018-09-19T00:14:57.372Z,61.23
2018-09-19T00:17:25.645Z,62.15
2018-09-19T00:19:53.960Z,62.19
2018-09-19T00:22:22.097Z,62.02
2018-09-19T00:24:50.309Z,62.39
2018-09-19T00:27:18.482Z,62.23
2018-09-19T00:29:46.623Z,62.07
2018-09-19T00:32:14.818Z,62.04
2018-09-19T00:34:43.017Z,62.02
2018-09-19T00:37:11.254Z,62.41
2018-09-19T00:39:39.466Z,61.90
2018-09-19T00:42:07.834Z,61.99
2018-09-19T00:44:36.083Z,62.24
2018-09-19T00:47:04.252Z,62.58
2018-09-19T00:49:32.467Z,62.75
2018-09-19T00:52:00.666Z,62.34
2018-09-19T00:54:29.096Z,62.49
2018-09-19T00:56:57.295Z,62.42
2018-09-19T00:59:25.439Z,61.96
2018-09-19T01:01:53.723Z,62.45
2018-09-19T01:04:21.900Z,62.79
2018-09-19T01:06:50.355Z,62.15
2018-09-19T01:09:18.727Z,62.24
2018-09-19T01:11:46.842Z,62.00
2018-09-19T01:14:15.230Z,62.16
2018-09-19T01:16:43.423Z,61.76
2018-09-19T01:19:11.624Z,62.19
2018-09-19T01:21:39.809Z,62.29
2018-09-19T01:24:07.982Z,62.13
2018-09-19T01:26:36.216Z,62.34
2018-09-19T01:29:04.407Z,62.11
2018-09-19T01:31:39.428Z,59.26
2018-09-19T01:34:07.675Z,57.76
2018-09-19T01:36:35.848Z,55.53
2018-09-19T01:39:05.039Z,55.03
2018-09-19T01:41:33.198Z,54.92
2018-09-19T01:44:01.382Z,55.09
2018-09-19T01:46:30.137Z,55.13
2018-09-19T01:48:58.320Z,55.44
2018-09-19T01:51:26.440Z,56.01
2018-09-19T01:53:54.777Z,56.68
2018-09-19T01:56:22.943Z,57.30
2018-09-19T01:58:51.118Z,57.16
2018-09-19T02:01:19.326Z,57.73
2018-09-19T02:03:54.149Z,59.25
2018-09-19T02:06:22.295Z,59.32
2018-09-19T02:08:50.619Z,59.20
2018-09-19T02:11:18.861Z,59.51
2018-09-19T02:13:47.075Z,59.98
2018-09-19T02:16:15.543Z,59.96
2018-09-19T02:18:43.702Z,60.85
2018-09-19T02:21:12.463Z,60.88
2018-09-19T02:23:40.664Z,61.34
2018-09-19T02:26:08.869Z,61.09
2018-09-19T02:28:37.185Z,61.66
2018-09-19T02:31:05.415Z,62.05
2018-09-19T02:33:33.599Z,61.99
2018-09-19T02:36:01.780Z,62.73
2018-09-19T02:38:30.255Z,63.09
2018-09-19T02:40:59.204Z,62.98
2018-09-19T02:43:27.469Z,62.68
2018-09-19T02:45:55.777Z,63.45
2018-09-19T02:48:23.998Z,63.18
2018-09-19T02:50:52.189Z,63.73
2018-09-19T02:53:20.508Z,64.04
2018-09-19T02:55:48.747Z,64.71
2018-09-19T02:58:16.924Z,64.59
2018-09-19T03:00:45.253Z,64.84
2018-09-19T03:03:13.443Z,65.40
2018-09-19T03:05:41.707Z,65.35
2018-09-19T03:08:12.997Z,65.54
2018-09-19T03:10:41.180Z,65.77
2018-09-19T03:13:09.341Z,66.68
2018-09-19T03:15:37.580Z,66.65
2018-09-19T03:18:05.855Z,66.18
2018-09-19T03:20:34.133Z,66.71
2018-09-19T03:23:02.343Z,66.38
2018-09-19T03:25:30.533Z,66.60
2018-09-19T03:27:58.880Z,66.18
2018-09-19T03:30:27.103Z,66.80
2018-09-19T03:32:55.300Z,67.10
2018-09-19T03:35:23.668Z,67.72
2018-09-19T03:37:52.059Z,67.21
2018-09-19T03:40:20.301Z,68.05
2018-09-19T03:42:48.487Z,68.05
2018-09-19T03:45:16.683Z,67.59
2018-09-19T03:47:44.925Z,67.17
2018-09-19T03:50:13.208Z,68.15
2018-09-19T03:52:43.064Z,67.92
2018-09-19T03:55:11.219Z,68.03
2018-09-19T03:57:39.415Z,68.91
2018-09-19T04:00:07.617Z,68.53
2018-09-19T04:02:35.955Z,68.11
2018-09-19T04:05:04.103Z,68.59
2018-09-19T04:07:32.276Z,69.31
2018-09-19T04:10:00.444Z,68.95
2018-09-19T04:12:28.597Z,69.09
2018-09-19T04:14:56.825Z,68.65
2018-09-19T04:17:25.071Z,69.02
2018-09-19T04:19:53.236Z,69.40
2018-09-19T04:22:21.420Z,69.34
2018-09-19T04:24:49.668Z,68.94
2018-09-19T04:27:17.916Z,69.17
2018-09-19T04:29:46.110Z,68.65
2018-09-19T04:32:14.360Z,68.84
2018-09-19T04:34:42.466Z,69.32
2018-09-19T04:37:10.906Z,69.84
2018-09-19T04:39:39.061Z,69.79
2018-09-19T04:42:07.601Z,69.56
2018-09-19T04:44:35.775Z,69.76
2018-09-19T04:47:03.886Z,69.84
2018-09-19T04:49:32.150Z,70.62
2018-09-19T04:52:00.399Z,70.78
2018-09-19T04:54:33.693Z,70.46
2018-09-19T04:57:01.890Z,70.97
2018-09-19T04:59:30.171Z,71.08
2018-09-19T05:01:58.407Z,70.83
2018-09-19T05:04:27.311Z,70.81
2018-09-19T05:06:55.584Z,70.70
2018-09-19T05:09:24.210Z,70.79
2018-09-19T05:11:52.447Z,70.90
2018-09-19T05:14:20.694Z,71.04
2018-09-19T05:16:49.963Z,70.74
2018-09-19T05:19:18.332Z,70.18
2018-09-19T05:21:46.543Z,70.94
2018-09-19T05:24:14.801Z,70.93
2018-09-19T05:26:42.996Z,70.26
2018-09-19T05:29:11.269Z,70.59
2018-09-19T05:31:39.584Z,70.85
2018-09-19T05:34:07.741Z,70.73
2018-09-19T05:36:36.063Z,70.29
2018-09-19T05:39:05.586Z,70.54
2018-09-19T05:41:33.842Z,70.75
2018-09-19T05:44:02.089Z,70.31
2018-09-19T05:46:30.359Z,70.00
2018-09-19T05:48:58.673Z,69.42
2018-09-19T05:51:26.981Z,69.70
2018-09-19T05:53:55.144Z,69.24
2018-09-19T05:56:23.301Z,68.75
2018-09-19T05:58:51.688Z,68.98
2018-09-19T06:01:19.881Z,69.00
2018-09-19T06:03:48.157Z,67.99
2018-09-19T06:06:16.369Z,68.16
2018-09-19T06:08:45.633Z,67.70
2018-09-19T06:11:22.811Z,66.47
2018-09-19T06:13:51.767Z,65.11
2018-09-19T06:16:20.042Z,65.06
2018-09-19T06:18:48.345Z,64.11
2018-09-19T06:21:16.517Z,64.67
2018-09-19T06:23:44.754Z,64.51
2018-09-19T06:26:12.999Z,64.40
2018-09-19T06:28:41.244Z,64.56
2018-09-19T06:31:09.471Z,64.66
2018-09-19T06:33:37.691Z,64.61
2018-09-19T06:36:06.019Z,64.00
2018-09-19T06:38:34.226Z,63.46
2018-09-19T06:41:02.620Z,63.53
2018-09-19T06:43:30.823Z,63.81
2018-09-19T06:45:58.990Z,63.67
2018-09-19T06:48:27.259Z,63.31
2018-09-19T06:50:55.431Z,63.29
2018-09-19T06:53:23.675Z,63.39
2018-09-19T06:55:52.093Z,62.81
2018-09-19T06:58:20.674Z,62.44
2018-09-19T07:00:48.814Z,62.48
2018-09-19T07:03:17.227Z,63.65
2018-09-19T07:05:45.446Z,63.75
2018-09-19T07:08:13.656Z,63.86
2018-09-19T07:10:41.867Z,62.74
2018-09-19T07:13:10.060Z,62.76
2018-09-19T07:15:38.242Z,62.25
2018-09-19T07:18:06.383Z,62.40
2018-09-19T07:20:34.619Z,61.77
2018-09-19T07:23:02.791Z,62.15
2018-09-19T07:25:31.136Z,61.82
2018-09-19T07:27:59.393Z,60.71
2018-09-19T07:30:27.614Z,61.02
2018-09-19T07:32:55.817Z,61.91
2018-09-19T07:35:24.393Z,61.97
2018-09-19T07:37:52.692Z,61.34
2018-09-19T07:40:20.928Z,61.30
2018-09-19T07:42:49.036Z,60.71
2018-09-19T07:45:17.300Z,60.73
2018-09-19T07:47:46.183Z,60.08
2018-09-19T07:50:14.379Z,58.97
2018-09-19T07:52:42.621Z,58.65
2018-09-19T07:55:11.089Z,57.71
2018-09-19T07:57:39.199Z,58.60
2018-09-19T08:00:07.489Z,57.47
2018-09-19T08:02:35.769Z,57.17
2018-09-19T08:05:04.029Z,57.79
2018-09-19T08:07:32.235Z,57.65
2018-09-19T08:10:00.730Z,58.68
2018-09-19T08:12:28.926Z,58.67
2018-09-19T08:14:57.205Z,57.56
2018-09-19T08:17:25.438Z,57.43
2018-09-19T08:19:53.586Z,57.19
2018-09-19T08:22:21.746Z,57.05
2018-09-19T08:24:50.140Z,56.94
2018-09-19T08:27:18.319Z,56.50
2018-09-19T08:29:46.499Z,57.36
2018-09-19T08:32:14.659Z,56.91
2018-09-19T08:34:42.983Z,57.72
2018-09-19T08:37:11.188Z,57.07
2018-09-19T08:39:39.435Z,57.48
2018-09-19T08:42:07.736Z,57.50
2018-09-19T08:44:35.940Z,57.12
2018-09-19T08:47:04.189Z,55.83
2018-09-19T08:49:33.037Z,56.38
2018-09-19T08:52:01.875Z,55.76
2018-09-19T08:54:30.180Z,56.18
2018-09-19T08:56:58.533Z,55.76
2018-09-19T08:59:26.721Z,55.43
2018-09-19T09:01:54.900Z,55.68
2018-09-19T09:04:23.069Z,55.08
2018-09-19T09:06:51.282Z,54.49
2018-09-19T09:09:19.466Z,54.19
2018-09-19T09:11:47.639Z,54.44
2018-09-19T09:14:15.938Z,54.04
2018-09-19T09:16:44.291Z,53.55
2018-09-19T09:19:12.568Z,53.80
2018-09-19T09:21:40.745Z,53.64
2018-09-19T09:24:09.023Z,53.36
2018-09-19T09:26:37.272Z,53.37
2018-09-19T09:29:05.485Z,53.00
2018-09-19T09:31:33.860Z,52.95
2018-09-19T09:34:02.648Z,52.89
2018-09-19T09:36:30.873Z,53.00
2018-09-19T09:39:00.234Z,52.54
2018-09-19T09:41:28.448Z,53.18
2018-09-19T09:43:56.694Z,52.91
2018-09-19T09:46:24.901Z,52.83
2018-09-19T09:48:53.089Z,52.76
2018-09-19T09:51:21.512Z,52.06
2018-09-19T09:53:49.738Z,51.68
2018-09-19T09:56:17.976Z,51.54
2018-09-19T09:58:47.524Z,51.78
2018-09-19T10:01:16.516Z,50.96
2018-09-19T10:03:44.851Z,50.53
2018-09-19T10:06:13.135Z,50.94
2018-09-19T10:08:41.343Z,50.93
2018-09-19T10:11:09.503Z,49.78
2018-09-19T10:13:38.289Z,50.23
2018-09-19T10:16:06.646Z,49.64
2018-09-19T10:18:35.027Z,50.34
2018-09-19T10:21:03.229Z,50.12
2018-09-19T10:23:31.472Z,50.14
2018-09-19T10:25:59.668Z,50.01
2018-09-19T10:28:27.861Z,49.45
2018-09-19T10:30:56.156Z,49.26
2018-09-19T10:33:24.457Z,49.77
2018-09-19T10:35:52.688Z,49.53
2018-09-19T10:38:20.853Z,48.94
2018-09-19T10:40:49.037Z,49.00
2018-09-19T10:43:17.340Z,49.23
2018-09-19T10:45:45.557Z,48.80
2018-09-19T10:48:17.826Z,48.04
2018-09-19T10:50:46.772Z,48.24
2018-09-19T10:53:15.100Z,48.26
2018-09-19T10:55:44.148Z,48.37
2018-09-19T10:58:16.190Z,48.47
2018-09-19T11:00:44.598Z,48.22
2018-09-19T11:03:13.055Z,48.43
2018-09-19T11:05:41.424Z,48.49
2018-09-19T11:08:09.632Z,48.64
2018-09-19T11:10:37.911Z,48.73
2018-09-19T11:13:06.233Z,47.94
2018-09-19T11:15:34.636Z,48.42
2018-09-19T11:18:02.794Z,47.80
2018-09-19T11:20:31.566Z,47.54
2018-09-19T11:23:00.124Z,47.88
2018-09-19T11:25:28.344Z,47.79
2018-09-19T11:27:56.572Z,47.30
2018-09-19T11:30:24.886Z,46.75
2018-09-19T11:32:53.085Z,47.14
2018-09-19T11:35:21.278Z,46.34
2018-09-19T11:37:49.462Z,46.69
2018-09-19T11:40:17.870Z,46.52
2018-09-19T11:42:46.259Z,46.34
2018-09-19T11:45:14.590Z,45.45
2018-09-19T11:47:42.920Z,45.71
2018-09-19T11:50:11.152Z,45.07
2018-09-19T11:52:39.272Z,45.11
2018-09-19T11:55:08.051Z,45.41
2018-09-19T11:57:36.268Z,44.97
2018-09-19T12:00:04.725Z,44.82
2018-09-19T12:02:32.974Z,45.13
2018-09-19T12:05:01.169Z,44.98
2018-09-19T12:07:29.638Z,44.30
2018-09-19T12:09:57.914Z,44.02
2018-09-19T12:12:26.354Z,44.68
2018-09-19T12:14:55.296Z,43.69
2018-09-19T12:17:23.612Z,43.74
2018-09-19T12:19:51.975Z,44.00
2018-09-19T12:22:20.110Z,43.89
2018-09-19T12:24:48.343Z,43.30
2018-09-19T12:27:17.144Z,43.55
2018-09-19T12:29:45.422Z,42.20
2018-09-19T12:32:13.613Z,41.98
2018-09-19T12:34:41.911Z,41.51
2018-09-19T12:37:10.089Z,42.11
2018-09-19T12:39:38.341Z,41.84
2018-09-19T12:42:06.704Z,42.07
2018-09-19T12:44:35.137Z,41.87
2018-09-19T12:47:03.451Z,41.98
2018-09-19T12:49:31.836Z,42.50
2018-09-19T12:52:00.492Z,41.40
2018-09-19T12:54:28.734Z,41.16
2018-09-19T12:56:56.962Z,41.63
2018-09-19T12:59:26.287Z,41.21
2018-09-19T13:01:55.102Z,42.03
2018-09-19T13:04:26.802Z,41.65
2018-09-19T13:06:55.254Z,40.69
2018-09-19T13:09:23.515Z,39.89
2018-09-19T13:11:52.029Z,41.38
2018-09-19T13:14:20.178Z,41.27
2018-09-19T13:16:48.388Z,40.51
2018-09-19T13:19:16.629Z,40.07
2018-09-19T13:21:44.838Z,39.50
2018-09-19T13:24:13.934Z,40.79
2018-09-19T13:26:42.174Z,40.69
2018-09-19T13:29:10.703Z,40.58
2018-09-19T13:31:38.893Z,39.49
2018-09-19T13:34:07.259Z,39.98
2018-09-19T13:36:35.428Z,40.27
2018-09-19T13:39:04.228Z,39.54
2018-09-19T13:41:32.441Z,39.62
2018-09-19T13:44:00.871Z,39.67
2018-09-19T13:46:29.199Z,40.18
2018-09-19T13:49:02.111Z,40.65
2018-09-19T13:51:30.508Z,39.86
2018-09-19T13:53:58.747Z,40.31
2018-09-19T13:56:27.052Z,40.37
2018-09-19T13:58:55.378Z,40.17
2018-09-19T14:01:23.736Z,39.71
2018-09-19T14:03:52.067Z,39.30
2018-09-19T14:06:21.188Z,39.34
2018-09-19T14:08:49.608Z,40.49
2018-09-19T14:11:17.806Z,39.43
2018-09-19T14:13:46.080Z,40.29
2018-09-19T14:16:14.370Z,39.10
2018-09-19T14:18:42.741Z,38.54
2018-09-19T14:21:10.924Z,38.86
2018-09-19T14:23:39.185Z,39.26
2018-09-19T14:26:07.616Z,39.74
2018-09-19T14:28:35.834Z,38.66
2018-09-19T14:31:04.056Z,38.49
2018-09-19T14:33:32.498Z,38.80
2018-09-19T14:36:00.800Z,38.29
2018-09-19T14:38:29.105Z,38.46
2018-09-19T14:40:57.389Z,39.27
2018-09-19T14:43:25.833Z,38.85
2018-09-19T14:45:53.991Z,39.16
2018-09-19T14:48:22.330Z,38.75
2018-09-19T14:50:51.721Z,37.54
2018-09-19T14:53:20.115Z,39.01
2018-09-19T14:55:48.563Z,38.37
2018-09-19T14:58:17.063Z,38.16
2018-09-19T15:00:45.317Z,39.30
2018-09-19T15:03:13.577Z,38.75
2018-09-19T15:05:41.893Z,38.79
2018-09-19T15:08:10.287Z,39.14
2018-09-19T15:10:38.501Z,39.08
2018-09-19T15:13:07.232Z,39.83
2018-09-19T15:15:36.267Z,39.19
2018-09-19T15:18:04.642Z,38.98
2018-09-19T15:20:32.988Z,38.97
2018-09-19T15:23:01.286Z,38.40
2018-09-19T15:25:29.681Z,38.83
2018-09-19T15:27:58.005Z,39.60
2018-09-19T15:30:26.181Z,40.27
2018-09-19T15:32:54.451Z,40.35
2018-09-19T15:35:22.692Z,40.14
2018-09-19T15:37:52.086Z,40.30
2018-09-19T15:40:20.644Z,40.49
2018-09-19T15:42:48.828Z,40.84
2018-09-19T15:45:31.124Z,39.88
2018-09-19T15:47:59.476Z,40.14
2018-09-19T15:50:27.975Z,40.29
2018-09-19T15:52:57.079Z,40.21
2018-09-19T15:55:25.529Z,39.72
2018-09-19T15:57:54.060Z,39.64
2018-09-19T16:00:22.315Z,40.98
2018-09-19T16:02:50.571Z,40.48
2018-09-19T16:05:18.777Z,40.36
2018-09-19T16:07:47.581Z,40.86
2018-09-19T16:10:15.793Z,39.33
2018-09-19T16:12:43.957Z,40.28
2018-09-19T16:15:12.297Z,40.13
2018-09-19T16:17:40.591Z,40.38
2018-09-19T16:20:08.813Z,40.67
2018-09-19T16:22:37.096Z,40.65
2018-09-19T16:25:05.317Z,41.35
2018-09-19T16:27:34.375Z,41.57
2018-09-19T16:30:03.648Z,41.04
2018-09-19T16:32:31.918Z,41.50
2018-09-19T16:35:00.415Z,42.54
2018-09-19T16:37:32.791Z,41.65
2018-09-19T16:40:01.087Z,42.87
2018-09-19T16:42:29.379Z,42.83
2018-09-19T16:44:57.660Z,43.02
2018-09-19T16:47:26.227Z,42.73
2018-09-19T16:49:55.408Z,44.04
2018-09-19T16:52:23.993Z,44.10
2018-09-19T16:54:53.661Z,43.88
2018-09-19T16:57:22.076Z,44.60
2018-09-19T16:59:50.304Z,44.87
2018-09-19T17:02:19.392Z,45.25
2018-09-19T17:04:47.644Z,45.64
2018-09-19T17:07:15.921Z,45.83
2018-09-19T17:09:44.378Z,46.00
2018-09-19T17:12:12.874Z,46.46
2018-09-19T17:14:41.172Z,46.48
2018-09-19T17:17:09.471Z,45.99
2018-09-19T17:19:38.001Z,46.37
2018-09-19T17:22:06.522Z,46.52
2018-09-19T17:24:34.945Z,46.71
2018-09-19T17:27:03.503Z,47.01
2018-09-19T17:29:31.873Z,47.20
2018-09-19T17:32:00.128Z,47.18
2018-09-19T17:34:28.447Z,48.17
2018-09-19T17:36:56.653Z,48.20
2018-09-19T17:39:24.960Z,48.21
2018-09-19T17:41:53.311Z,48.20
2018-09-19T17:44:21.553Z,48.65
2018-09-19T17:46:49.970Z,48.59
2018-09-19T17:49:18.295Z,48.69
2018-09-19T17:51:46.625Z,48.67
2018-09-19T17:54:14.940Z,48.61
2018-09-19T17:56:43.229Z,48.34
2018-09-19T17:59:11.538Z,49.35
2018-09-19T18:01:39.778Z,48.42
2018-09-19T18:04:08.041Z,49.49
2018-09-19T18:06:36.384Z,49.23
2018-09-19T18:09:05.449Z,48.90
2018-09-19T18:11:33.681Z,48.60
2018-09-19T18:14:01.937Z,48.70
2018-09-19T18:16:30.303Z,49.16
2018-09-19T18:18:59.501Z,49.14
2018-09-19T18:21:27.747Z,48.47
2018-09-19T18:23:56.055Z,48.87
2018-09-19T18:26:24.294Z,49.48
2018-09-19T18:28:52.562Z,49.14
2018-09-19T18:31:20.792Z,49.42
2018-09-19T18:33:49.174Z,48.53
2018-09-19T18:36:17.474Z,49.26
2018-09-19T18:38:45.767Z,48.62
2018-09-19T18:41:14.559Z,49.44
2018-09-19T18:43:42.839Z,49.47
2018-09-19T18:46:11.134Z,50.54
2018-09-19T18:48:39.343Z,49.20
2018-09-19T18:51:08.598Z,50.07
2018-09-19T18:53:36.913Z,50.63
2018-09-19T18:56:05.444Z,50.20
2018-09-19T18:58:33.732Z,50.77
2018-09-19T19:01:01.998Z,50.96
2018-09-19T19:03:30.654Z,50.79
2018-09-19T19:05:58.892Z,50.38
2018-09-19T19:08:27.383Z,50.74
2018-09-19T19:10:55.657Z,50.92
2018-09-19T19:13:23.951Z,49.83
2018-09-19T19:15:52.952Z,49.46
2018-09-19T19:18:21.887Z,49.30
2018-09-19T19:20:50.203Z,50.33
2018-09-19T19:23:19.616Z,50.54
2018-09-19T19:28:15.173Z,49.99
2018-09-19T19:30:43.610Z,50.88
2018-09-19T19:33:12.000Z,51.76
2018-09-19T19:35:40.487Z,51.21
2018-09-19T19:38:08.878Z,51.59
2018-09-19T19:40:37.409Z,50.66
2018-09-19T19:43:05.905Z,51.83
2018-09-19T19:45:34.537Z,50.86
2018-09-19T19:48:02.870Z,51.12
2018-09-19T19:50:31.522Z,51.70
2018-09-19T19:52:59.904Z,51.35
2018-09-19T19:55:28.281Z,51.00
2018-09-19T19:57:57.341Z,51.27
2018-09-19T20:00:25.930Z,51.49
2018-09-19T20:02:54.204Z,52.21
2018-09-19T20:05:22.529Z,52.40
2018-09-19T20:07:50.812Z,51.74
2018-09-19T20:10:19.254Z,51.98
2018-09-19T20:12:47.514Z,52.66
2018-09-19T20:15:16.197Z,52.48
2018-09-19T20:17:44.615Z,52.83
2018-09-19T20:20:12.999Z,53.19
2018-09-19T20:22:41.313Z,53.51
2018-09-19T20:25:09.619Z,53.86
2018-09-19T20:27:38.040Z,53.45
2018-09-19T20:30:07.068Z,53.20
2018-09-19T20:32:35.426Z,53.65
2018-09-19T20:35:03.679Z,53.54
2018-09-19T20:37:31.987Z,53.35
2018-09-19T20:40:00.942Z,53.71
2018-09-19T20:42:29.245Z,52.67
2018-09-19T20:44:58.454Z,52.41
2018-09-19T20:47:26.904Z,52.89
2018-09-19T20:49:55.432Z,53.53
2018-09-19T20:52:23.741Z,54.00
2018-09-19T20:54:52.035Z,53.50
2018-09-19T20:57:20.439Z,53.66
2018-09-19T20:59:49.013Z,53.66
2018-09-19T21:02:17.261Z,53.64
2018-09-19T21:04:45.592Z,53.54
2018-09-19T21:07:13.837Z,53.59
2018-09-19T21:09:42.093Z,53.85
2018-09-19T21:12:10.322Z,54.76
2018-09-19T21:14:38.617Z,53.98
2018-09-19T21:17:06.861Z,53.20
2018-09-19T21:19:35.117Z,53.15
2018-09-19T21:22:03.413Z,54.33
2018-09-19T21:24:31.498Z,54.01
2018-09-19T21:26:59.665Z,54.43
2018-09-19T21:29:27.891Z,55.08
2018-09-19T21:31:56.071Z,54.79
2018-09-19T21:34:24.548Z,55.30
2018-09-19T21:36:53.046Z,55.51
2018-09-19T21:39:21.285Z,55.40
2018-09-19T21:41:49.527Z,55.96
2018-09-19T21:44:17.701Z,56.41
2018-09-19T21:46:45.868Z,55.80
2018-09-19T21:49:14.083Z,55.82
2018-09-19T21:51:42.273Z,56.49
2018-09-19T21:54:10.444Z,56.30
2018-09-19T21:56:38.661Z,56.75
2018-09-19T21:59:06.854Z,56.14
2018-09-19T22:01:41.728Z,56.24
2018-09-19T22:04:10.571Z,56.28
2018-09-19T22:06:39.058Z,57.10
2018-09-19T22:09:11.436Z,56.97
2018-09-19T22:11:46.048Z,56.77
2018-09-19T22:14:14.853Z,57.16
2018-09-19T22:16:42.996Z,56.46
2018-09-19T22:19:11.282Z,56.76
2018-09-19T22:21:39.498Z,57.19
2018-09-19T22:24:07.817Z,56.72
2018-09-19T22:26:36.455Z,56.48
2018-09-19T22:29:04.708Z,56.43
2018-09-19T22:31:33.147Z,57.08
2018-09-19T22:34:01.530Z,57.31
2018-09-19T22:36:29.792Z,56.92
2018-09-19T22:38:57.988Z,57.04
2018-09-19T22:41:26.320Z,57.01
2018-09-19T22:43:54.522Z,57.68
2018-09-19T22:46:23.018Z,57.17
2018-09-19T22:48:51.268Z,57.13
2018-09-19T22:51:19.440Z,57.02
2018-09-19T22:53:47.714Z,56.25
2018-09-19T22:56:15.976Z,56.98
2018-09-19T22:58:44.152Z,57.35
2018-09-19T23:01:12.406Z,57.79
2018-09-19T23:03:40.649Z,57.02
2018-09-19T23:06:09.189Z,56.30
2018-09-19T23:08:37.362Z,56.42
2018-09-19T23:11:05.638Z,57.30
2018-09-19T23:13:33.814Z,57.57
2018-09-19T23:16:02.002Z,57.86
2018-09-19T23:18:30.158Z,58.70
2018-09-19T23:20:58.333Z,59.34
2018-09-19T23:23:26.614Z,59.02
2018-09-19T23:25:54.780Z,58.50
2018-09-19T23:28:22.956Z,59.07
2018-09-19T23:30:51.438Z,58.70
2018-09-19T23:33:20.169Z,58.65
2018-09-19T23:35:48.338Z,59.46
2018-09-19T23:38:16.448Z,58.95
2018-09-19T23:40:44.824Z,58.84
2018-09-19T23:43:13.081Z,58.85
2018-09-19T23:45:41.309Z,58.56
2018-09-19T23:48:10.040Z,58.19
2018-09-19T23:50:38.317Z,58.84
2018-09-19T23:53:06.525Z,58.37
2018-09-19T23:55:34.873Z,58.58
2018-09-19T23:58:03.093Z,58.33
